Time;durP1;ratioP1;P1;durP2;ratioP2;P2;SDS_P1;SDS_P2;PMS_P1;PMS_P2;Temp;Humidity;BMP_temperature;BMP_pressure;BME280_temperature;BME280_humidity;BME280_pressure;Samples;Min_cycle;Max_cycle;Signal;HPM_P1;HPM_P2
2022/01/29 00:00:17;;;;;;;26.03;12.60;;;;;;;6.06;100.00;102413.50;5028650;28;20217;-76
2022/01/29 00:02:42;;;;;;;15.70;11.83;;;;;;;5.19;100.00;102277.09;5020373;28;20188;-75
2022/01/29 00:05:09;;;;;;;20.90;11.70;;;;;;;6.70;100.00;102459.56;5031118;28;20234;-76
2022/01/29 00:07:35;;;;;;;24.00;11.57;;;;;;;6.47;100.00;102456.22;5032504;28;20208;-75
2022/01/29 00:10:03;;;;;;;23.23;11.60;;;;;;;5.75;100.00;102332.66;5028434;28;20476;-75
2022/01/29 00:12:30;;;;;;;22.10;11.53;;;;;;;6.31;100.00;102398.91;5025515;28;20195;-76
2022/01/29 00:14:55;;;;;;;19.70;11.60;;;;;;;6.34;100.00;102417.31;5020373;28;20430;-75
2022/01/29 00:17:21;;;;;;;26.93;11.40;;;;;;;4.84;100.00;102181.66;5021358;28;20438;-74
2022/01/29 00:19:46;;;;;;;20.73;12.90;;;;;;;5.78;100.00;102308.44;5025799;28;20416;-73
2022/01/29 00:22:11;;;;;;;18.60;11.47;;;;;;;6.62;100.00;102430.06;5027043;28;20264;-74
2022/01/29 00:24:37;;;;;;;23.83;12.70;;;;;;;4.73;100.00;102130.22;5027845;28;20192;-74
2022/01/29 00:27:08;;;;;;;22.67;10.80;;;;;;;6.65;100.00;102425.28;5030812;28;20221;-75
2022/01/29 00:29:35;;;;;;;25.40;11.50;;;;;;;6.65;100.00;102409.28;5016986;28;20279;-75
2022/01/29 00:32:00;;;;;;;20.00;11.10;;;;;;;6.41;100.00;102374.13;5032666;28;20457;-74
2022/01/29 00:34:26;;;;;;;23.60;11.90;;;;;;;5.86;100.00;102265.19;5035644;28;20446;-74
2022/01/29 00:36:51;;;;;;;17.40;10.43;;;;;;;5.58;100.00;102245.41;5027234;28;20247;-73
2022/01/29 00:39:17;;;;;;;22.27;12.13;;;;;;;6.10;100.00;102308.38;5032876;28;20402;-72
2022/01/29 00:41:42;;;;;;;20.70;11.00;;;;;;;6.02;100.00;102278.06;5028336;28;20510;-73
2022/01/29 00:44:07;;;;;;;29.80;12.47;;;;;;;6.03;100.00;102301.03;5033905;28;20196;-71
2022/01/29 00:46:33;;;;;;;23.80;11.70;;;;;;;5.98;100.00;102257.97;5034425;28;20180;-75
2022/01/29 00:48:58;;;;;;;22.27;11.20;;;;;;;5.77;100.00;102255.34;5033370;28;20199;-75
2022/01/29 00:51:24;;;;;;;22.63;11.60;;;;;;;4.89;100.00;102070.44;5029629;28;20257;-73
2022/01/29 00:53:49;;;;;;;21.90;11.17;;;;;;;6.33;100.00;102341.00;5028647;28;20330;-73
2022/01/29 00:56:14;;;;;;;22.10;11.93;;;;;;;6.46;100.00;102331.94;5014793;28;20191;-76
2022/01/29 00:58:40;;;;;;;19.33;11.23;;;;;;;5.94;100.00;102241.44;5027227;28;20180;-75
2022/01/29 01:01:06;;;;;;;22.93;12.40;;;;;;;5.46;100.00;102180.78;5024590;28;20303;-75
2022/01/29 01:03:32;;;;;;;21.60;11.53;;;;;;;5.83;100.00;102250.31;5035697;28;20249;-73
2022/01/29 01:05:57;;;;;;;18.67;11.40;;;;;;;5.01;100.00;102114.59;5029411;28;20740;-73
2022/01/29 01:08:22;;;;;;;26.00;11.90;;;;;;;4.87;100.00;102073.22;5031306;28;20607;-74
2022/01/29 01:10:48;;;;;;;20.90;12.50;;;;;;;5.79;100.00;102202.81;5027764;28;20286;-73
2022/01/29 01:13:13;;;;;;;17.27;10.93;;;;;;;5.88;100.00;102217.97;5057752;22;20251;-85
2022/01/29 01:15:45;;;;;;;21.83;11.03;;;;;;;6.64;100.00;102316.97;5042393;28;20182;-89
2022/01/29 01:18:10;;;;;;;17.23;11.07;;;;;;;4.86;100.00;102028.16;5025515;28;20176;-85
2022/01/29 01:20:49;;;;;;;21.37;10.80;;;;;;;6.66;100.00;102296.34;5046702;28;20819;-88
2022/01/29 01:23:15;;;;;;;17.30;10.03;;;;;;;6.34;100.00;102269.91;5034085;28;20215;-88
2022/01/29 01:25:41;;;;;;;17.30;10.10;;;;;;;5.39;100.00;102094.50;5045738;28;20442;-87
2022/01/29 01:28:30;;;;;;;14.27;9.90;;;;;;;6.63;100.00;102283.28;5053693;28;20199;-88
2022/01/29 01:30:55;;;;;;;18.33;10.03;;;;;;;6.63;100.00;102290.44;5047149;28;20168;-75
2022/01/29 01:33:21;;;;;;;17.30;10.90;;;;;;;5.90;100.00;102133.44;5046427;28;20523;-86
2022/01/29 01:35:51;;;;;;;17.03;10.10;;;;;;;5.89;100.00;102166.38;5046691;28;20194;-88
2022/01/29 01:38:30;;;;;;;14.80;10.47;;;;;;;6.70;100.00;102244.41;5047739;28;20192;-88
2022/01/29 01:41:01;;;;;;;17.13;10.60;;;;;;;6.71;100.00;102275.44;5015995;28;20433;-87
2022/01/29 01:43:26;;;;;;;17.63;10.73;;;;;;;5.60;100.00;102060.66;5044090;28;20465;-85
2022/01/29 01:45:52;;;;;;;15.27;9.43;;;;;;;5.82;100.00;102102.19;5042347;28;20445;-85
2022/01/29 01:48:17;;;;;;;22.40;10.90;;;;;;;6.14;100.00;102127.78;5051506;28;20199;-87
2022/01/29 01:50:43;;;;;;;14.07;9.93;;;;;;;5.38;100.00;102012.97;5048072;28;20187;-88
2022/01/29 01:53:10;;;;;;;12.90;10.73;;;;;;;5.79;100.00;102043.06;5025336;28;20199;-86
2022/01/29 01:55:36;;;;;;;20.67;10.80;;;;;;;6.87;100.00;102242.03;5027407;28;20747;-75
2022/01/29 01:58:01;;;;;;;14.77;9.87;;;;;;;6.32;100.00;102163.41;5022277;28;20438;-87
2022/01/29 02:00:28;;;;;;;22.97;10.60;;;;;;;6.99;100.00;102273.75;5041394;28;20195;-86
2022/01/29 02:02:54;;;;;;;16.67;9.53;;;;;;;6.36;100.00;102157.81;5042014;28;20203;-86
2022/01/29 02:05:19;;;;;;;19.43;10.80;;;;;;;5.51;100.00;102004.75;5040050;28;20911;-88
2022/01/29 02:07:46;;;;;;;17.20;10.17;;;;;;;6.18;100.00;102133.66;5027922;28;20250;-85
2022/01/29 02:10:16;;;;;;;18.57;10.50;;;;;;;7.09;100.00;102251.56;5043677;28;20454;-88
2022/01/29 02:12:47;;;;;;;18.13;11.50;;;;;;;6.43;100.00;102153.63;5040728;28;20469;-89
2022/01/29 02:15:15;;;;;;;19.70;10.60;;;;;;;6.86;100.00;102203.03;5036403;28;20438;-84
2022/01/29 02:17:40;;;;;;;25.33;13.30;;;;;;;6.89;100.00;102184.91;5037410;28;20464;-86
2022/01/29 02:20:09;;;;;;;29.33;12.07;;;;;;;5.97;100.00;102046.72;5037373;28;20434;-87
2022/01/29 02:22:34;;;;;;;25.47;11.73;;;;;;;6.26;100.00;102067.22;5039482;28;20201;-88
2022/01/29 02:25:00;;;;;;;17.90;11.27;;;;;;;6.36;100.00;102101.84;5035848;28;20447;-88
2022/01/29 02:27:25;;;;;;;24.03;13.00;;;;;;;6.76;100.00;102137.19;5048604;28;20609;-88
2022/01/29 02:29:51;;;;;;;20.13;11.70;;;;;;;6.40;100.00;102076.63;5027415;28;20564;-83
2022/01/29 02:32:16;;;;;;;30.37;12.93;;;;;;;7.02;100.00;102190.78;5037746;28;20219;-88
2022/01/29 02:34:44;;;;;;;21.77;12.03;;;;;;;7.27;100.00;102215.19;5031734;28;20187;-86
2022/01/29 02:37:13;;;;;;;25.47;11.50;;;;;;;6.95;100.00;102143.50;5043201;28;20733;-88
2022/01/29 02:39:38;;;;;;;28.57;11.67;;;;;;;6.66;100.00;102099.03;5026382;28;20433;-80
2022/01/29 02:42:04;;;;;;;28.30;12.43;;;;;;;6.59;100.00;102089.91;5046421;28;20472;-88
2022/01/29 02:44:31;;;;;;;21.90;11.77;;;;;;;6.87;100.00;102122.84;5046170;28;20183;-87
2022/01/29 02:47:13;;;;;;;23.60;10.67;;;;;;;6.63;100.00;102056.66;5031910;28;20186;-84
2022/01/29 02:49:39;;;;;;;29.57;13.07;;;;;;;7.33;100.00;102174.56;5048677;28;20629;-86
2022/01/29 02:52:04;;;;;;;21.63;10.13;;;;;;;5.73;100.00;101895.34;5041716;28;21254;-86
2022/01/29 02:54:30;;;;;;;33.67;12.63;;;;;;;6.85;100.00;102071.47;5021526;28;20190;-83
2022/01/29 02:57:01;;;;;;;26.90;11.70;;;;;;;7.27;100.00;102140.47;5048554;28;20190;-89
2022/01/29 02:59:27;;;;;;;21.43;11.47;;;;;;;6.93;100.00;102095.59;5042459;28;20434;-88
2022/01/29 03:01:53;;;;;;;26.03;11.40;;;;;;;7.09;100.00;102103.03;5040299;28;20465;-85
2022/01/29 03:04:18;;;;;;;26.67;10.50;;;;;;;6.15;100.00;101939.47;5044275;28;20544;-87
2022/01/29 03:06:44;;;;;;;25.50;11.43;;;;;;;6.73;100.00;102017.47;5039285;28;20407;-83
2022/01/29 03:09:10;;;;;;;22.97;11.13;;;;;;;6.90;100.00;102045.22;5044003;28;20226;-87
2022/01/29 03:11:51;;;;;;;22.70;10.87;;;;;;;7.36;100.00;102110.22;5025511;28;20330;-86
2022/01/29 03:14:17;;;;;;;21.27;11.03;;;;;;;6.85;100.00;102036.81;5046153;28;20461;-87
2022/01/29 03:16:43;;;;;;;25.33;12.00;;;;;;;7.31;100.00;102117.81;5037019;28;20830;-86
2022/01/29 03:19:16;;;;;;;19.50;9.90;;;;;;;7.21;100.00;102071.66;5022564;28;20187;-86
2022/01/29 03:21:42;;;;;;;25.50;11.13;;;;;;;7.10;100.00;102064.66;5047505;28;21151;-88
2022/01/29 03:24:07;;;;;;;24.70;11.53;;;;;;;7.54;100.00;102130.81;5041951;28;20434;-85
2022/01/29 03:26:33;;;;;;;25.70;11.20;;;;;;;7.51;100.00;102139.09;5036761;28;20461;-90
2022/01/29 03:28:58;;;;;;;26.33;10.77;;;;;;;7.58;100.00;102141.06;5024293;28;20196;-85
2022/01/29 03:31:32;;;;;;;19.00;11.03;;;;;;;7.60;100.00;102138.22;5044736;28;20274;-88
2022/01/29 03:33:58;;;;;;;23.20;11.27;;;;;;;7.62;100.00;102133.59;5036118;28;20191;-87
2022/01/29 03:36:24;;;;;;;24.13;11.70;;;;;;;6.39;100.00;101947.81;5032156;28;20517;-87
2022/01/29 03:38:50;;;;;;;24.40;10.83;;;;;;;6.86;100.00;102014.50;5036831;28;20270;-84
2022/01/29 03:41:22;;;;;;;26.20;11.50;;;;;;;5.66;100.00;101796.56;5031131;28;20438;-89
2022/01/29 03:43:53;;;;;;;21.13;10.37;;;;;;;6.38;100.00;101916.84;5037720;28;20540;-87
2022/01/29 03:46:18;;;;;;;24.37;11.07;;;;;;;6.63;100.00;101923.38;5026094;28;20477;-84
2022/01/29 03:48:44;;;;;;;22.07;11.00;;;;;;;7.70;100.00;102097.13;5048761;28;20477;-87
2022/01/29 03:51:15;;;;;;;17.60;10.30;;;;;;;7.43;100.00;102055.28;5045769;28;20811;-87
2022/01/29 03:54:22;;;;;;;23.73;10.07;;;;;;;7.70;100.00;102094.47;5041891;28;20232;-87
2022/01/29 03:56:47;;;;;;;25.43;12.00;;;;;;;7.13;100.00;101986.16;4999667;28;20502;-86
2022/01/29 03:59:44;;;;;;;20.73;11.37;;;;;;;7.73;100.00;102079.97;5048371;28;22081;-89
2022/01/29 04:03:03;;;;;;;21.77;11.70;;;;;;;7.54;100.00;102034.69;5054489;28;20203;-87
2022/01/29 04:05:10;;;;;;;19.83;10.67;;;;;;;7.53;100.00;102043.69;5039754;28;20532;-88
2022/01/29 04:07:56;;;;;;;17.47;10.37;;;;;;;7.22;100.00;101994.09;5058846;28;21018;-87
2022/01/29 04:10:23;;;;;;;26.83;11.10;;;;;;;6.86;100.00;101921.16;5060026;28;20534;-87
2022/01/29 04:12:51;;;;;;;19.00;10.37;;;;;;;7.23;100.00;101971.78;5033315;28;21041;-87
2022/01/29 04:15:23;;;;;;;19.30;11.20;;;;;;;6.62;100.00;101891.50;5034414;28;20443;-88
2022/01/29 04:17:53;;;;;;;18.00;10.83;;;;;;;7.86;100.00;102067.09;5040506;28;20437;-89
2022/01/29 04:20:20;;;;;;;16.90;10.03;;;;;;;6.85;100.00;101892.78;5043864;28;20430;-88
2022/01/29 04:22:46;;;;;;;21.93;10.67;;;;;;;7.58;100.00;102023.56;5047025;28;20501;-86
2022/01/29 04:25:15;;;;;;;20.37;11.97;;;;;;;6.82;100.00;101906.41;5037090;28;20519;-87
2022/01/29 04:27:43;;;;;;;24.37;11.50;;;;;;;7.56;100.00;102004.19;5044398;28;20461;-84
2022/01/29 04:30:15;;;;;;;21.97;11.10;;;;;;;7.81;100.00;102049.81;5037878;28;20433;-79
2022/01/29 04:33:00;;;;;;;17.63;11.60;;;;;;;7.87;100.00;102046.56;5024297;28;21229;-87
2022/01/29 04:35:48;;;;;;;19.50;11.60;;;;;;;7.89;100.00;102056.09;5024190;28;20429;-89
2022/01/29 04:38:14;;;;;;;19.17;11.50;;;;;;;7.93;100.00;102057.47;5038636;28;20456;-82
2022/01/29 04:40:40;;;;;;;23.93;12.40;;;;;;;7.88;100.00;102048.25;5046413;28;20487;-86
2022/01/29 04:44:01;;;;;;;27.57;12.00;;;;;;;7.89;100.00;102048.06;5051964;28;20751;-84
2022/01/29 04:46:43;;;;;;;20.37;12.47;;;;;;;7.50;100.00;101998.59;5032788;28;20202;-88
2022/01/29 04:49:09;;;;;;;23.13;11.67;;;;;;;7.61;100.00;102012.59;5058535;28;20664;-85
2022/01/29 04:51:37;;;;;;;24.63;13.13;;;;;;;7.89;100.00;102042.72;5046279;28;20433;-89
2022/01/29 04:54:05;;;;;;;27.23;13.43;;;;;;;7.89;100.00;102048.06;5048331;28;20445;-88
2022/01/29 04:56:31;;;;;;;18.63;12.17;;;;;;;6.89;100.00;101888.84;5029968;28;20441;-88
2022/01/29 04:58:56;;;;;;;19.93;12.50;;;;;;;6.11;100.00;101749.81;5021499;28;20442;-76
2022/01/29 05:01:22;;;;;;;23.53;13.00;;;;;;;7.42;100.00;101965.47;5046299;28;20270;-88
2022/01/29 05:04:32;;;;;;;21.67;12.87;;;;;;;7.42;100.00;101964.66;5022621;28;21258;-87
2022/01/29 05:06:59;;;;;;;16.23;11.13;;;;;;;7.15;100.00;101910.31;5037751;28;20218;-83
2022/01/29 05:09:25;;;;;;;20.87;11.57;;;;;;;6.91;100.00;101859.34;5037314;28;20458;-85
2022/01/29 05:11:53;;;;;;;18.13;12.00;;;;;;;7.55;100.00;101985.63;5043909;28;20496;-87
2022/01/29 05:14:33;;;;;;;17.43;11.40;;;;;;;7.48;100.00;101986.22;5045833;28;20768;-84
2022/01/29 05:29:31;;;;;;;21.50;12.60;;;;;;;7.94;100.00;102015.56;5070896;28;20534;-88
2022/01/29 05:32:07;;;;;;;19.73;12.70;;;;;;;7.90;100.00;102024.91;5291465;22;20501;-86
2022/01/29 05:34:54;;;;;;;18.53;12.70;;;;;;;7.39;100.00;101922.25;5076155;23;20577;-85
2022/01/29 05:37:20;;;;;;;18.67;11.97;;;;;;;7.50;100.00;101962.06;5003141;28;20515;-83
2022/01/29 05:40:09;;;;;;;23.07;13.03;;;;;;;7.84;100.00;102004.97;5000406;28;20604;-83
2022/01/29 05:42:35;;;;;;;18.80;13.63;;;;;;;6.99;100.00;101870.94;5003199;28;20546;-86
2022/01/29 05:45:03;;;;;;;19.90;13.47;;;;;;;7.82;100.00;102000.78;5007372;28;20594;-83
2022/01/29 05:47:35;;;;;;;29.57;13.87;;;;;;;4.83;100.00;101489.66;4990644;28;20480;-86
2022/01/29 05:50:06;;;;;;;19.47;13.47;;;;;;;7.90;100.00;102006.19;5018894;28;20480;-89
2022/01/29 05:53:01;;;;;;;;;;;;;;;;;;;;;
2022/01/29 05:55:27;;;;;;;22.87;13.57;;;;;;;7.65;100.00;101938.34;5004988;28;20436;-76
2022/01/29 05:57:56;;;;;;;21.57;12.83;;;;;;;7.07;100.00;101845.38;5002020;28;20496;-86
2022/01/29 06:00:21;;;;;;;23.77;13.70;;;;;;;8.06;100.00;101989.47;5004411;28;20165;-86
2022/01/29 06:02:47;;;;;;;17.50;12.70;;;;;;;8.03;100.00;101997.78;5004964;28;20467;-85
2022/01/29 06:05:13;;;;;;;16.70;12.00;;;;;;;7.70;100.00;101918.22;4999759;28;20174;-86
2022/01/29 06:07:38;;;;;;;20.37;13.23;;;;;;;6.57;100.00;101719.53;4983457;28;20458;-84
2022/01/29 06:10:04;;;;;;;17.90;13.10;;;;;;;7.25;100.00;101828.34;4997120;28;20223;-85
2022/01/29 06:12:30;;;;;;;19.93;12.47;;;;;;;7.62;100.00;101885.25;5003365;28;20224;-84
2022/01/29 06:14:56;;;;;;;23.30;13.23;;;;;;;6.33;100.00;101687.28;4976309;28;21886;-86
2022/01/29 06:17:21;;;;;;;16.63;12.20;;;;;;;6.21;100.00;101657.34;5001712;28;20181;-78
2022/01/29 06:19:59;;;;;;;17.80;12.40;;;;;;;6.47;100.00;101669.94;5032054;28;20196;-88
2022/01/29 06:22:27;;;;;;;22.83;13.07;;;;;;;7.37;100.00;101849.47;4983249;28;20258;-85
2022/01/29 06:24:58;;;;;;;18.87;12.87;;;;;;;8.02;100.00;101929.31;5014606;28;20447;-83
2022/01/29 06:27:24;;;;;;;21.40;12.80;;;;;;;7.77;100.00;101867.69;5009442;28;20424;-84
2022/01/29 06:29:49;;;;;;;19.90;12.67;;;;;;;8.07;100.00;101927.88;4998253;28;20955;-85
2022/01/29 06:32:17;;;;;;;22.80;12.90;;;;;;;7.32;100.00;101811.72;5006806;28;21021;-78
2022/01/29 06:34:42;;;;;;;20.20;13.70;;;;;;;7.98;100.00;101896.72;5005047;28;20216;-85
2022/01/29 06:37:17;;;;;;;18.90;12.33;;;;;;;8.02;100.00;101919.47;5006797;28;20877;-87
2022/01/29 06:39:56;;;;;;;19.00;12.97;;;;;;;7.83;100.00;101859.03;5001552;28;20226;-85
2022/01/29 06:42:22;;;;;;;17.37;12.20;;;;;;;7.81;100.00;101871.72;5000960;28;20490;-84
2022/01/29 06:44:50;;;;;;;28.63;12.97;;;;;;;7.32;100.00;101771.69;4991305;28;20578;-87
2022/01/29 06:47:27;;;;;;;17.70;12.93;;;;;;;7.09;100.00;101752.66;4987509;28;20185;-87
2022/01/29 06:49:53;;;;;;;22.10;12.60;;;;;;;6.84;100.00;101711.63;5003264;28;20955;-87
2022/01/29 06:52:18;;;;;;;28.37;12.10;;;;;;;6.77;100.00;101692.72;5013207;28;20460;-87
2022/01/29 06:54:44;;;;;;;18.17;12.70;;;;;;;6.46;100.00;101631.78;4986383;28;20594;-84
2022/01/29 06:57:09;;;;;;;22.73;11.77;;;;;;;7.73;100.00;101838.78;5002565;28;20181;-75
2022/01/29 06:59:34;;;;;;;21.60;12.27;;;;;;;7.58;100.00;101828.66;5006932;28;20744;-80
2022/01/29 07:02:10;;;;;;;19.37;12.10;;;;;;;7.72;100.00;101816.56;4989023;28;20583;-87
2022/01/29 07:04:42;;;;;;;21.57;13.30;;;;;;;8.18;100.00;101920.56;5001261;28;20658;-79
2022/01/29 07:07:10;;;;;;;18.10;12.50;;;;;;;8.22;100.00;101922.78;5002168;28;20428;-83
2022/01/29 07:09:36;;;;;;;17.13;11.20;;;;;;;6.55;100.00;101676.19;5000513;28;20475;-73
2022/01/29 07:12:09;;;;;;;15.23;11.97;;;;;;;7.88;100.00;101878.13;5013662;22;20568;-72
2022/01/29 07:14:38;;;;;;;17.17;10.60;;;;;;;8.19;100.00;101917.75;5016369;28;20192;-71
2022/01/29 07:17:08;;;;;;;21.57;12.47;;;;;;;8.23;100.00;101916.44;5015441;28;20463;-70
2022/01/29 07:19:33;;;;;;;18.77;11.27;;;;;;;8.11;100.00;101894.47;5016423;28;20475;-71
2022/01/29 07:21:58;;;;;;;15.77;11.20;;;;;;;8.22;100.00;101914.75;5004851;28;20450;-71
2022/01/29 07:24:24;;;;;;;20.70;11.40;;;;;;;8.18;100.00;101913.38;4999418;28;20199;-72
2022/01/29 07:26:49;;;;;;;22.77;11.27;;;;;;;8.12;100.00;101898.81;5000939;28;20193;-72
2022/01/29 07:29:14;;;;;;;19.40;11.07;;;;;;;8.12;100.00;101911.34;5015220;28;20700;-71
2022/01/29 07:31:40;;;;;;;14.37;10.77;;;;;;;8.01;100.00;101893.72;5009395;28;20234;-71
2022/01/29 07:34:05;;;;;;;15.43;10.60;;;;;;;7.89;100.00;101879.78;4999304;28;20212;-71
2022/01/29 07:36:30;;;;;;;18.80;11.90;;;;;;;8.05;100.00;101905.78;4998856;28;20256;-69
2022/01/29 07:38:56;;;;;;;15.00;11.20;;;;;;;8.01;100.00;101900.91;5000344;28;20264;-70
2022/01/29 07:41:21;;;;;;;14.27;11.00;;;;;;;8.08;100.00;101904.66;4996070;28;20842;-71
2022/01/29 07:43:46;;;;;;;18.20;11.20;;;;;;;7.83;100.00;101866.22;5012525;28;20645;-69
2022/01/29 07:46:12;;;;;;;20.23;12.17;;;;;;;7.96;100.00;101887.19;4998179;28;20363;-71
2022/01/29 07:48:37;;;;;;;18.67;11.60;;;;;;;8.05;100.00;101896.94;4999862;28;20232;-71
2022/01/29 07:51:02;;;;;;;14.43;11.23;;;;;;;8.07;100.00;101884.25;4994308;28;20184;-71
2022/01/29 07:53:28;;;;;;;16.03;11.23;;;;;;;8.03;100.00;101890.91;5012417;28;20332;-71
2022/01/29 07:55:53;;;;;;;15.20;11.50;;;;;;;8.04;100.00;101885.41;5001065;28;20247;-71
2022/01/29 07:58:19;;;;;;;15.50;10.53;;;;;;;8.07;100.00;101879.75;4993160;28;20267;-71
2022/01/29 08:00:44;;;;;;;15.37;11.47;;;;;;;8.09;100.00;101884.94;4992333;28;20552;-72
2022/01/29 08:03:09;;;;;;;13.17;10.63;;;;;;;7.78;100.00;101821.28;4992649;28;20285;-71
2022/01/29 08:05:35;;;;;;;15.27;11.70;;;;;;;7.84;100.00;101842.03;4994354;28;20189;-71
2022/01/29 08:08:01;;;;;;;16.07;12.13;;;;;;;8.11;100.00;101857.06;4984485;28;20265;-70
2022/01/29 08:10:26;;;;;;;19.60;12.13;;;;;;;8.14;100.00;101869.28;4992181;28;20511;-71
2022/01/29 08:12:52;;;;;;;15.70;11.40;;;;;;;8.17;100.00;101863.63;4996514;28;20216;-70
2022/01/29 08:15:17;;;;;;;14.93;10.60;;;;;;;7.55;100.00;101748.00;4997655;28;20184;-72
2022/01/29 08:17:42;;;;;;;17.13;10.53;;;;;;;8.17;100.00;101852.09;5000018;28;20197;-71
2022/01/29 08:20:08;;;;;;;16.40;11.07;;;;;;;7.86;100.00;101794.63;4988847;28;23037;-72
2022/01/29 08:22:33;;;;;;;17.43;10.63;;;;;;;8.09;100.00;101828.81;4982937;28;20604;-72
2022/01/29 08:24:59;;;;;;;14.47;10.47;;;;;;;8.19;100.00;101828.69;4997989;28;20628;-72
2022/01/29 08:27:25;;;;;;;12.00;10.23;;;;;;;8.05;100.00;101804.25;4998688;28;20189;-71
2022/01/29 08:29:50;;;;;;;20.10;10.73;;;;;;;8.12;100.00;101804.44;4995191;28;20212;-70
2022/01/29 08:32:16;;;;;;;17.30;10.07;;;;;;;7.83;100.00;101751.38;4995124;28;20668;-72
2022/01/29 08:34:45;;;;;;;16.00;10.20;;;;;;;8.09;100.00;101792.25;4992914;28;20204;-72
2022/01/29 08:37:11;;;;;;;12.50;10.67;;;;;;;8.24;100.00;101800.50;5000499;28;20185;-72
2022/01/29 08:39:36;;;;;;;13.27;10.47;;;;;;;8.24;100.00;101797.00;4996857;28;28637;-71
2022/01/29 08:42:02;;;;;;;17.77;10.00;;;;;;;8.29;100.00;101805.38;4995209;28;20197;-71
2022/01/29 08:44:28;;;;;;;13.27;9.37;;;;;;;8.33;100.00;101804.91;5000895;28;20649;-70
2022/01/29 08:46:54;;;;;;;17.13;10.30;;;;;;;8.34;100.00;101809.25;4993207;28;20510;-70
2022/01/29 08:49:19;;;;;;;12.40;10.10;;;;;;;8.35;100.00;101794.88;4998848;28;20472;-73
2022/01/29 08:51:45;;;;;;;15.40;9.60;;;;;;;6.82;100.00;101550.91;5004317;28;20190;-72
2022/01/29 08:54:10;;;;;;;14.10;9.90;;;;;;;8.23;100.00;101764.09;4992327;28;20217;-73
2022/01/29 08:56:35;;;;;;;12.70;9.40;;;;;;;7.92;100.00;101697.81;4994033;28;20193;-73
2022/01/29 08:59:01;;;;;;;13.93;8.30;;;;;;;8.27;100.00;101743.22;4989866;28;21114;-73
2022/01/29 09:01:27;;;;;;;10.80;8.87;;;;;;;8.53;100.00;101810.88;4995249;28;20197;-73
2022/01/29 09:03:53;;;;;;;13.60;9.00;;;;;;;8.06;100.00;101720.41;4997578;28;20291;-71
2022/01/29 09:06:18;;;;;;;18.13;9.50;;;;;;;8.32;100.00;101747.06;5003239;28;20501;-71
2022/01/29 09:08:50;;;;;;;18.60;8.20;;;;;;;8.17;100.00;101708.59;4999232;28;20209;-71
2022/01/29 09:11:16;;;;;;;11.13;7.50;;;;;;;8.48;100.00;101735.66;4991293;28;20678;-73
2022/01/29 09:13:41;;;;;;;16.90;8.93;;;;;;;8.71;100.00;101759.09;4995402;28;20483;-73
2022/01/29 09:16:07;;;;;;;8.50;6.73;;;;;;;8.72;100.00;101747.38;4999927;28;20447;-73
2022/01/29 09:18:33;;;;;;;11.73;5.90;;;;;;;8.50;100.00;101719.41;5001885;28;20722;-73
2022/01/29 09:20:58;;;;;;;13.20;7.17;;;;;;;8.81;100.00;101749.06;5003112;28;20216;-72
2022/01/29 09:23:24;;;;;;;14.00;5.70;;;;;;;8.06;100.00;101639.44;5004597;28;20310;-73
2022/01/29 09:25:49;;;;;;;8.03;5.63;;;;;;;7.98;100.00;101577.94;5007148;28;20232;-73
2022/01/29 09:28:15;;;;;;;12.93;5.33;;;;;;;8.44;100.00;101637.19;5006202;28;20236;-72
2022/01/29 09:30:41;;;;;;;11.60;5.03;;;;;;;8.98;100.00;101721.34;5005694;28;20279;-73
2022/01/29 09:33:07;;;;;;;7.07;4.90;;;;;;;8.35;100.00;101613.09;5006491;28;20223;-72
2022/01/29 09:35:32;;;;;;;12.43;5.50;;;;;;;9.01;100.00;101710.28;5006644;28;20909;-73
2022/01/29 09:37:58;;;;;;;16.53;5.43;;;;;;;9.02;100.00;101708.44;5007541;28;20189;-70
2022/01/29 09:40:23;;;;;;;7.77;4.07;;;;;;;9.03;100.00;101704.78;5004306;28;20192;-73
2022/01/29 09:42:50;;;;;;;9.70;4.70;;;;;;;9.07;100.00;101691.91;5004548;28;20566;-73
2022/01/29 09:45:19;;;;;;;10.43;5.17;;;;;;;9.10;100.00;101670.16;4990309;28;20261;-72
2022/01/29 09:47:46;;;;;;;11.47;5.07;;;;;;;9.01;100.00;101677.34;5005314;28;20474;-72
2022/01/29 09:50:14;;;;;;;9.10;4.87;;;;;;;9.07;100.00;101663.28;5004874;28;20467;-72
2022/01/29 09:52:41;;;;;;;9.27;4.63;;;;;;;8.73;100.00;101612.66;5004466;28;20495;-73
2022/01/29 09:55:07;;;;;;;7.07;5.17;;;;;;;8.80;100.00;101613.66;5004807;28;20489;-71
2022/01/29 09:57:33;;;;;;;8.40;4.60;;;;;;;9.07;100.00;101633.84;5004586;28;20448;-72
2022/01/29 09:59:59;;;;;;;6.00;4.03;;;;;;;8.85;100.00;101589.06;5004947;28;20535;-73
2022/01/29 10:02:24;;;;;;;7.00;3.70;;;;;;;9.18;100.00;101633.50;5002448;28;20545;-72
2022/01/29 10:04:51;;;;;;;8.53;4.13;;;;;;;9.14;100.00;101621.47;5004915;28;20231;-72
2022/01/29 10:07:25;;;;;;;7.93;4.10;;;;;;;9.21;100.00;101621.63;5003756;28;20236;-73
2022/01/29 10:09:52;;;;;;;8.60;4.53;;;;;;;9.23;100.00;101617.78;5002896;28;20435;-73
2022/01/29 10:12:26;;;;;;;6.17;4.00;;;;;;;9.20;100.00;101620.78;5003639;28;20475;-73
2022/01/29 10:14:56;;;;;;;5.90;3.70;;;;;;;8.95;100.00;101568.31;5019314;28;20903;-73
2022/01/29 10:17:48;;;;;;;6.53;3.50;;;;;;;8.91;100.00;101556.28;5004672;28;20813;-73
2022/01/29 10:20:24;;;;;;;10.17;3.87;;;;;;;8.94;100.00;101569.31;4987850;28;20432;-73
2022/01/29 10:22:55;;;;;;;7.17;3.50;;;;;;;9.24;100.00;101599.88;5003116;28;20499;-72
2022/01/29 10:25:28;;;;;;;7.50;3.87;;;;;;;9.20;100.00;101583.31;4986986;28;20425;-73
2022/01/29 10:28:17;;;;;;;6.90;3.70;;;;;;;9.15;100.00;101568.78;4989639;28;20614;-73
2022/01/29 10:30:48;;;;;;;9.80;3.53;;;;;;;9.25;100.00;101598.84;5004454;28;20432;-72
2022/01/29 10:33:23;;;;;;;6.57;3.23;;;;;;;9.33;100.00;101598.00;5003190;28;20459;-73
2022/01/29 10:36:09;;;;;;;6.27;3.60;;;;;;;9.23;100.00;101592.84;5005871;28;20444;-70
2022/01/29 10:38:40;;;;;;;6.43;2.73;;;;;;;9.33;100.00;101598.00;5003396;28;20433;-73
2022/01/29 10:41:24;;;;;;;7.60;3.60;;;;;;;9.33;100.00;101600.69;5004693;28;20463;-72
2022/01/29 10:46:47;;;;;;;6.37;3.17;;;;;;;9.32;100.00;101602.53;5004130;28;20854;-72
2022/01/29 10:49:45;;;;;;;6.50;3.10;;;;;;;9.38;100.00;101601.00;5006745;28;20478;-72
2022/01/29 10:52:15;;;;;;;7.63;2.77;;;;;;;9.36;100.00;101619.91;4986133;28;20459;-73
2022/01/29 10:54:43;;;;;;;7.50;2.50;;;;;;;9.13;100.00;101574.28;5001973;28;20975;-71
2022/01/29 10:57:15;;;;;;;8.37;2.70;;;;;;;9.30;100.00;101590.31;5001909;28;20805;-72
2022/01/29 10:59:52;;;;;;;14.30;3.20;;;;;;;9.40;100.00;101620.38;5018939;28;20654;-72
2022/01/29 11:02:20;;;;;;;8.17;2.17;;;;;;;7.68;100.00;101359.41;5000856;28;20455;-73
2022/01/29 11:04:47;;;;;;;5.97;2.57;;;;;;;9.42;100.00;101596.97;5003726;28;20435;-71
2022/01/29 11:07:17;;;;;;;8.50;2.30;;;;;;;9.32;100.00;101585.63;5003558;28;20444;-70
2022/01/29 11:09:45;;;;;;;12.17;2.97;;;;;;;9.51;100.00;101604.78;5004356;28;21195;-72
2022/01/29 11:12:12;;;;;;;4.90;1.70;;;;;;;9.52;100.00;101605.66;5001804;28;20456;-70
2022/01/29 11:14:40;;;;;;;6.90;2.43;;;;;;;9.28;100.00;101524.38;5003965;28;20582;-73
2022/01/29 11:17:05;;;;;;;3.87;1.70;;;;;;;9.34;100.00;101522.84;5004028;28;20517;-72
2022/01/29 11:19:32;;;;;;;5.97;1.63;;;;;;;9.54;100.00;101550.03;5002772;28;20968;-72
2022/01/29 11:22:05;;;;;;;7.57;2.23;;;;;;;9.25;100.00;101502.47;5002447;28;20676;-71
2022/01/29 11:24:32;;;;;;;5.07;2.57;;;;;;;9.41;100.00;101539.06;5002439;28;20446;-71
2022/01/29 11:26:58;;;;;;;13.00;2.17;;;;;;;9.54;100.00;101550.03;5002766;28;20945;-71
2022/01/29 11:29:30;;;;;;;9.90;2.10;;;;;;;9.45;100.00;101510.94;5003466;28;20470;-73
2022/01/29 11:32:23;;;;;;;5.47;2.03;;;;;;;9.56;100.00;101523.94;5001631;28;20259;-72
2022/01/29 11:35:12;;;;;;;6.50;1.97;;;;;;;9.49;100.00;101488.16;5003953;28;20969;-71
2022/01/29 11:37:48;;;;;;;8.30;2.93;;;;;;;9.48;100.00;101502.53;5001939;28;20951;-71